Terminal Aerodrome Forecast
Issued by NWS

Home | Current Version | Previous Version | Text Only | Print | Product List | Glossary On
Versions: 1 2 3 4 5 6 7 8 9 10 11 12
132
FTUS45 KGGW 171121
TAFSDY
TAF
KSDY 171121Z 1712/1812 21007KT P6SM SKC WS020/28040KT
     FM171600 23011KT P6SM SKC
     FM172100 23017G25KT P6SM SKC
     FM172300 22011KT P6SM SKC
     FM180100 21007KT P6SM FEW220
     FM180600 23010KT P6SM FEW170 WS020/28050KT
     FM180700 27014G24KT P6SM FEW170 WS020/28050KT
     FM180900 28019G28KT P6SM FEW220=

USA.gov is the U.S. government's official web portal to all federal, state and local government web resources and services.